WetterOnline ( http://www.wetteronline.de )

Wetter aktuell Lübeck

Aktuelles Wetter: Lübeck/Blankensee (15m)

6-stündlich | Neueste Meldungen
Ortszeit Temperatur Wetter
Sa, 22.09. 2:00 9.6° C wolkenlos
Fr, 21.09. 20:00 12.7° C leicht bewölkt
Fr, 21.09. 14:00 -° C Regen
Fr, 21.09. 8:00 18.6° C bewölkt
Fr, 21.09. 2:00 17.9° C bedeckt
Do, 20.09. 20:00 19.2° C wolkenlos
Do, 20.09. 14:00 23.5° C bewölkt
Do, 20.09. 8:00 16.8° C leicht bewölkt
Ortszeit Temperatur Wetter
Sa, 22.09. 2:30 9.5° C leicht bewölkt
Sa, 22.09. 2:20 9.5° C leicht bewölkt
Sa, 22.09. 2:10 9.5° C wolkig
Sa, 22.09. 2:00 9.6° C wolkenlos
Sa, 22.09. 1:40 9.7° C wolkenlos
Sa, 22.09. 1:30 9.7° C wolkenlos
Sa, 22.09. 1:00 10.0° C fast wolkenlos
Sa, 22.09. 0:30 10.5° C wolkig
Sa, 22.09. 0:00 11.0° C leicht bewölkt
Fr, 21.09. 23:30 11.4° C wolkig
Ortszeit Relative Feuchte Sichtweite
Sa, 22.09. 2:00 80% 55 km
Fr, 21.09. 20:00 72% 40 km
Fr, 21.09. 14:00 - 4.9 km
Fr, 21.09. 8:00 65% 23 km
Fr, 21.09. 2:00 66% 29 km
Do, 20.09. 20:00 65% 30 km
Do, 20.09. 14:00 53% 30 km
Do, 20.09. 8:00 76% 18 km
Ortszeit Relative Feuchte Sichtweite
Sa, 22.09. 2:30 82% 50 km
Sa, 22.09. 2:20 82% -
Sa, 22.09. 2:10 82% -
Sa, 22.09. 2:00 80% 55 km
Sa, 22.09. 1:40 79% -
Sa, 22.09. 1:30 77% 55 km
Sa, 22.09. 1:00 75% 50 km
Sa, 22.09. 0:30 72% 60 km
Sa, 22.09. 0:00 67% 60 km
Fr, 21.09. 23:30 63% 50 km
Ortszeit Niederschlagsmenge Niederschlagsart
Sa, 22.09. 2:00 0.1 l/m2 in 6 Std. Regen
Fr, 21.09. 20:00 5 l/m2 in 12 Std. Regen
Fr, 21.09. 14:00 0.9 l/m2 in 6 Std. Regen
Fr, 21.09. 8:00 0.0 l/m2 in 12 Std. -
Fr, 21.09. 2:00 0.0 l/m2 in 6 Std. -
Do, 20.09. 20:00 0.0 l/m2 in 12 Std. -
Do, 20.09. 14:00 0.0 l/m2 in 6 Std. -
Do, 20.09. 8:00 0.0 l/m2 in 12 Std. -
Ortszeit Niederschlagsmenge Niederschlagsart
Sa, 22.09. 2:30 0.0 l/m2 in 1 Std. -
Sa, 22.09. 2:20 keine Meldung -
Sa, 22.09. 2:10 keine Meldung -
Sa, 22.09. 2:00 0.0 l/m2 in 1 Std. Regen
Sa, 22.09. 1:40 keine Meldung -
Sa, 22.09. 1:30 0.0 l/m2 in 1 Std. -
Sa, 22.09. 1:00 0.1 l/m2 in 1 Std. Regen
Sa, 22.09. 0:30 0.1 l/m2 in 1 Std. Schneeregen
Sa, 22.09. 0:00 0.0 l/m2 in 1 Std. -
Fr, 21.09. 23:30 0.0 l/m2 in 1 Std. -
Ortszeit Stärke Spitze Richtung
km/h Bft. km/h Grad Sektor
Sa, 22.09. 2:00 9 2 44 230° SW
Fr, 21.09. 20:00 11 2 40 250° W
Fr, 21.09. 14:00 22 4 68 260° W
Fr, 21.09. 8:00 13 3 30 160° S
Fr, 21.09. 2:00 9 2 15 150° SO
Do, 20.09. 20:00 6 1 33 160° S
Do, 20.09. 14:00 13 3 31 200° S
Do, 20.09. 8:00 7 2 25 190° S
Ortszeit Stärke Spitze Richtung
km/h Bft. km/h Grad Sektor
Sa, 22.09. 2:30 7 2 25 230° SW
Sa, 22.09. 2:20 7 2 - 230° SW
Sa, 22.09. 2:10 9 2 - 230° SW
Sa, 22.09. 2:00 9 2 26 230° SW
Sa, 22.09. 1:40 11 2 - 210° SW
Sa, 22.09. 1:30 9 2 26 210° SW
Sa, 22.09. 1:00 9 2 30 210° SW
Sa, 22.09. 0:30 9 2 30 220° SW
Sa, 22.09. 0:00 14 3 32 250° W
Fr, 21.09. 23:30 17 3 33 240° SW
Ortszeit Untergrenze Bedeckung Gattung
total tief tief mittel hoch
Sa, 22.09. 2:00 6900 m 0/8 0/8 - - -
Fr, 21.09. 20:00 1410 m 4/8 4/8 - - -
Fr, 21.09. 14:00 <30 m 8/8 8/8 - - -
Fr, 21.09. 8:00 6900 m 8/8 6/8 - - -
Fr, 21.09. 2:00 5700 m 8/8 8/8 - - -
Do, 20.09. 20:00 - 0/8 0/8 - - -
Do, 20.09. 14:00 1410 m 8/8 7/8 - - -
Do, 20.09. 8:00 4800 m 3/8 1/8 - - -
Ortszeit Bedeckungsgrad in Achtel und Wolkenuntergrenze
Sa, 22.09. 2:30 2(5400m) 4(6900m)
Sa, 22.09. 2:20 2(5400m) 4(6900m)
Sa, 22.09. 2:10 2(5400m) 5(6900m)
Sa, 22.09. 2:00 2(6900m)
Sa, 22.09. 1:40 keine Wolken
Sa, 22.09. 1:30 keine Wolken
Sa, 22.09. 1:00 1(4500m)
Sa, 22.09. 0:30 1(1500m) 7(3900m) 8(5700m)
Sa, 22.09. 0:00 2(1500m) 5(3900m) 5(4800m)
Fr, 21.09. 23:30 2(1320m) 5(4500m) 6(5400m)
Ortszeit Luftdruck NN (hPa) Tendenz (hPa in 3 Std.)
Sa, 22.09. 2:00 1010 + 1,0
Fr, 21.09. 20:00 1006 + 2,0
Fr, 21.09. 14:00 1002 + 2,0
Fr, 21.09. 8:00 1003 - 3,6
Fr, 21.09. 2:00 1009 - 2,5
Do, 20.09. 20:00 1012 - 0,7
Do, 20.09. 14:00 1015 - 1,1
Do, 20.09. 8:00 1016 + 0,1
Ortszeit Luftdruck NN (hPa) Tendenz (hPa in 3 Std.)
Sa, 22.09. 2:30 1010 + 0,8
Sa, 22.09. 2:20 1010 keine Meldung
Sa, 22.09. 2:10 1010 keine Meldung
Sa, 22.09. 2:00 1010 + 1,0
Sa, 22.09. 1:40 1009 keine Meldung
Sa, 22.09. 1:30 1010 + 1,6
Sa, 22.09. 1:00 1009 + 1,7
Sa, 22.09. 0:30 1009 + 1,6
Sa, 22.09. 0:00 1009 + 2,1
Fr, 21.09. 23:30 1009 + 2,3
Ortszeit Schneehöhe (cm)
Sa, 22.09. 2:00 -
Fr, 21.09. 20:00 -
Fr, 21.09. 14:00 -
Fr, 21.09. 8:00 -
Fr, 21.09. 2:00 -
Do, 20.09. 20:00 -
Do, 20.09. 14:00 -
Do, 20.09. 8:00 -
Ortszeit Schneehöhe (cm)
Sa, 22.09. 2:30 -
Sa, 22.09. 2:20 -
Sa, 22.09. 2:10 -
Sa, 22.09. 2:00 -
Sa, 22.09. 1:40 -
Sa, 22.09. 1:30 -
Sa, 22.09. 1:00 -
Sa, 22.09. 0:30 -
Sa, 22.09. 0:00 -
Fr, 21.09. 23:30 -
Link zu dieser Seite / Seite empfehlen

Das Wetter in ...